createdAt,value
2024-02-17T00:00:52.313Z,85.30
2024-02-17T00:03:54.769Z,86.58
2024-02-17T00:06:57.896Z,86.01
2024-02-17T00:09:59.896Z,85.73
2024-02-17T00:13:02.160Z,85.77
2024-02-17T00:16:04.046Z,85.56
2024-02-17T00:19:06.383Z,85.74
2024-02-17T00:22:08.534Z,85.76
2024-02-17T00:25:10.794Z,86.29
2024-02-17T00:28:12.548Z,86.42
2024-02-17T00:31:14.381Z,86.27
2024-02-17T00:34:16.958Z,86.87
2024-02-17T00:37:19.217Z,87.49
2024-02-17T00:40:21.120Z,87.84
2024-02-17T00:43:24.212Z,87.40
2024-02-17T00:46:26.399Z,86.67
2024-02-17T00:49:28.332Z,86.16
2024-02-17T00:52:30.113Z,86.58
2024-02-17T00:55:32.041Z,86.95
2024-02-17T00:58:33.831Z,87.39
2024-02-17T01:01:39.661Z,87.35
2024-02-17T01:04:42.556Z,87.42
2024-02-17T01:07:44.593Z,87.57
2024-02-17T01:10:46.831Z,87.77
2024-02-17T01:13:48.532Z,87.96
2024-02-17T01:16:50.715Z,88.12
2024-02-17T01:19:52.507Z,88.10
2024-02-17T01:22:54.890Z,88.44
2024-02-17T01:25:56.668Z,88.12
2024-02-17T01:28:58.598Z,88.28
2024-02-17T01:32:00.773Z,89.20
2024-02-17T01:35:02.881Z,88.51
2024-02-17T01:38:05.436Z,88.53
2024-02-17T01:41:07.415Z,89.02
2024-02-17T01:44:09.375Z,89.06
2024-02-17T01:47:11.755Z,89.25
2024-02-17T01:50:14.425Z,89.40
2024-02-17T01:53:16.779Z,89.44
2024-02-17T01:56:18.753Z,90.26
2024-02-17T01:59:21.189Z,89.94
2024-02-17T02:02:23.205Z,89.73
2024-02-17T02:05:25.093Z,89.85
2024-02-17T02:08:27.077Z,89.74
2024-02-17T02:11:29.472Z,89.10
2024-02-17T02:14:31.649Z,88.86
2024-02-17T02:17:34.000Z,88.93
2024-02-17T02:20:36.336Z,89.01
2024-02-17T02:23:38.126Z,89.12
2024-02-17T02:26:40.886Z,89.50
2024-02-17T02:29:46.869Z,89.65
2024-02-17T02:32:50.216Z,90.09
2024-02-17T02:35:52.002Z,90.37
2024-02-17T02:38:56.673Z,90.56
2024-02-17T02:41:58.589Z,91.25
2024-02-17T02:45:00.932Z,91.47
2024-02-17T02:48:03.331Z,90.98
2024-02-17T02:51:05.410Z,91.17
2024-02-17T02:54:07.999Z,90.90
2024-02-17T02:57:09.936Z,90.80
2024-02-17T03:00:12.466Z,90.73
2024-02-17T03:03:14.701Z,90.74
2024-02-17T03:06:16.444Z,90.65
2024-02-17T03:09:18.208Z,90.67
2024-02-17T03:12:20.416Z,90.56
2024-02-17T03:15:22.089Z,90.62
2024-02-17T03:18:23.932Z,90.62
2024-02-17T03:21:25.786Z,90.90
2024-02-17T03:24:27.611Z,91.12
2024-02-17T03:27:29.365Z,91.38
2024-02-17T03:30:31.386Z,92.12
2024-02-17T03:33:33.375Z,91.52
2024-02-17T03:36:36.210Z,91.85
2024-02-17T03:39:38.645Z,92.45
2024-02-17T03:42:40.481Z,92.48
2024-02-17T03:45:42.366Z,92.69
2024-02-17T03:48:44.331Z,92.66
2024-02-17T03:51:46.212Z,92.69
2024-02-17T03:54:48.572Z,92.50
2024-02-17T03:57:50.562Z,92.59
2024-02-17T04:00:53.320Z,93.13
2024-02-17T04:03:55.564Z,93.29
2024-02-17T04:06:57.491Z,92.98
2024-02-17T04:09:59.704Z,93.31
2024-02-17T04:13:01.657Z,93.44
2024-02-17T04:16:03.995Z,93.22
2024-02-17T04:19:06.055Z,93.28
2024-02-17T04:22:07.791Z,93.53
2024-02-17T04:25:09.756Z,93.49
2024-02-17T04:28:11.427Z,93.27
2024-02-17T04:31:13.979Z,93.54
2024-02-17T04:34:16.553Z,93.51
2024-02-17T04:37:18.349Z,93.10
2024-02-17T04:40:20.484Z,92.87
2024-02-17T04:43:22.463Z,93.26
2024-02-17T04:46:24.719Z,93.21
2024-02-17T04:49:26.946Z,93.32
2024-02-17T04:52:28.607Z,93.25
2024-02-17T04:55:30.578Z,93.00
2024-02-17T04:58:32.825Z,92.71
2024-02-17T05:01:35.118Z,92.18
2024-02-17T05:04:37.539Z,92.06
2024-02-17T05:07:39.467Z,92.13
2024-02-17T05:10:41.465Z,92.26
2024-02-17T05:13:43.385Z,91.87
2024-02-17T05:16:46.236Z,91.78
2024-02-17T05:19:48.984Z,92.03
2024-02-17T05:22:51.150Z,92.32
2024-02-17T05:25:53.291Z,92.22
2024-02-17T05:28:54.964Z,94.15
2024-02-17T05:31:56.663Z,92.32
2024-02-17T05:34:59.766Z,92.16
2024-02-17T05:38:01.994Z,92.96
2024-02-17T05:41:04.558Z,93.72
2024-02-17T05:44:06.289Z,94.97
2024-02-17T05:47:08.068Z,95.23
2024-02-17T05:50:10.175Z,95.29
2024-02-17T05:53:11.810Z,95.11
2024-02-17T05:56:13.781Z,94.90
2024-02-17T05:59:15.573Z,94.73
2024-02-17T06:02:20.687Z,93.98
2024-02-17T06:05:22.339Z,94.10
2024-02-17T06:08:24.305Z,94.39
2024-02-17T06:11:26.612Z,94.37
2024-02-17T06:14:28.356Z,94.29
2024-02-17T06:17:30.341Z,93.94
2024-02-17T06:20:32.057Z,93.77
2024-02-17T06:23:33.930Z,93.84
2024-02-17T06:26:36.152Z,93.47
2024-02-17T06:29:38.044Z,94.09
2024-02-17T06:32:40.002Z,93.58
2024-02-17T06:35:42.249Z,93.76
2024-02-17T06:38:44.337Z,93.91
2024-02-17T06:41:46.431Z,93.78
2024-02-17T06:44:48.649Z,93.17
2024-02-17T06:47:53.549Z,92.36
2024-02-17T06:50:56.080Z,91.72
2024-02-17T06:53:58.250Z,92.25
2024-02-17T06:57:00.168Z,91.76
2024-02-17T07:00:01.968Z,92.02
2024-02-17T07:03:04.777Z,92.13
2024-02-17T07:06:07.341Z,92.65
2024-02-17T07:09:09.348Z,92.16
2024-02-17T07:12:12.028Z,91.73
2024-02-17T07:15:13.978Z,91.36
2024-02-17T07:18:15.737Z,91.05
2024-02-17T07:21:18.220Z,90.77
2024-02-17T07:24:20.400Z,90.49
2024-02-17T07:27:22.970Z,90.78
2024-02-17T07:30:26.083Z,91.35
2024-02-17T07:33:27.775Z,90.58
2024-02-17T07:36:29.708Z,90.48
2024-02-17T07:39:31.699Z,89.67
2024-02-17T07:42:33.637Z,89.12
2024-02-17T07:45:35.753Z,89.04
2024-02-17T07:48:38.227Z,88.42
2024-02-17T07:51:40.526Z,87.77
2024-02-17T07:54:42.211Z,87.02
2024-02-17T07:57:43.987Z,86.64
2024-02-17T08:00:46.860Z,85.95
2024-02-17T08:03:48.896Z,85.24
2024-02-17T08:06:52.848Z,84.36
2024-02-17T08:09:54.606Z,84.65
2024-02-17T08:12:56.947Z,82.85
2024-02-17T08:15:59.264Z,82.96
2024-02-17T08:19:01.697Z,81.93
2024-02-17T08:22:04.102Z,81.53
2024-02-17T08:25:06.722Z,81.21
2024-02-17T08:28:08.471Z,80.57
2024-02-17T08:31:10.754Z,80.79
2024-02-17T08:34:13.049Z,80.15
2024-02-17T08:37:15.328Z,79.89
2024-02-17T08:40:17.450Z,79.85
2024-02-17T08:43:19.435Z,79.04
2024-02-17T08:46:21.349Z,77.82
2024-02-17T08:49:23.315Z,77.05
2024-02-17T08:52:25.131Z,76.11
2024-02-17T08:55:27.025Z,75.01
2024-02-17T08:58:28.749Z,73.37
2024-02-17T09:01:30.541Z,72.47
2024-02-17T09:04:32.331Z,69.56
2024-02-17T09:07:35.153Z,66.63
2024-02-17T09:10:37.231Z,66.49
2024-02-17T09:13:39.009Z,65.71
2024-02-17T09:16:40.692Z,63.94
2024-02-17T09:19:43.137Z,63.92
2024-02-17T09:22:44.927Z,64.34
2024-02-17T09:25:46.619Z,64.86
2024-02-17T09:28:48.291Z,65.91
2024-02-17T09:31:50.161Z,66.60
2024-02-17T09:34:52.542Z,66.52
2024-02-17T09:37:54.458Z,66.33
2024-02-17T09:40:56.674Z,65.27
2024-02-17T09:43:58.806Z,65.03
2024-02-17T09:47:00.891Z,64.80
2024-02-17T09:50:04.264Z,64.12
2024-02-17T09:53:06.336Z,64.26
2024-02-17T09:56:08.185Z,64.22
2024-02-17T09:59:09.886Z,64.80
2024-02-17T10:02:12.409Z,62.18
2024-02-17T10:05:15.165Z,61.89
2024-02-17T10:08:16.952Z,62.01
2024-02-17T10:11:19.088Z,61.18
2024-02-17T10:14:25.494Z,60.65
2024-02-17T10:17:27.375Z,60.95
2024-02-17T10:20:29.236Z,60.63
2024-02-17T10:23:30.941Z,58.67
2024-02-17T10:26:33.788Z,58.56
2024-02-17T10:29:35.548Z,59.11
2024-02-17T10:32:37.698Z,57.53
2024-02-17T10:35:39.964Z,57.82
2024-02-17T10:38:41.863Z,56.15
2024-02-17T10:41:47.251Z,54.18
2024-02-17T10:44:49.557Z,53.94
2024-02-17T10:48:01.331Z,53.90
2024-02-17T10:51:03.632Z,53.81
2024-02-17T10:54:09.372Z,52.98
2024-02-17T10:57:14.685Z,52.73
2024-02-17T11:00:17.277Z,53.36
2024-02-17T11:03:24.871Z,53.60
2024-02-17T11:06:27.381Z,52.83
2024-02-17T11:09:29.920Z,53.20
2024-02-17T11:12:33.654Z,52.08
2024-02-17T11:15:58.640Z,51.67
2024-02-17T11:19:00.593Z,50.57
2024-02-17T11:22:03.089Z,50.67
2024-02-17T11:25:05.587Z,51.21
2024-02-17T11:28:22.071Z,51.48
2024-02-17T11:31:31.545Z,52.14
2024-02-17T11:34:35.540Z,52.28
2024-02-17T11:37:40.591Z,52.63
2024-02-17T11:40:44.010Z,52.11
2024-02-17T11:43:46.949Z,51.61
2024-02-17T11:46:49.667Z,51.01
2024-02-17T11:49:51.802Z,51.07
2024-02-17T11:52:53.629Z,50.24
2024-02-17T11:56:02.597Z,44.25
2024-02-17T11:59:04.323Z,40.73
2024-02-17T12:02:07.321Z,38.00
2024-02-17T12:05:09.692Z,37.78
2024-02-17T12:08:11.495Z,37.83
2024-02-17T12:11:13.518Z,37.44
2024-02-17T12:14:15.599Z,38.46
2024-02-17T12:17:17.437Z,40.66
2024-02-17T12:20:20.205Z,42.27
2024-02-17T12:23:22.531Z,40.96
2024-02-17T12:26:33.443Z,38.84
2024-02-17T12:29:51.349Z,39.56
2024-02-17T12:33:04.894Z,41.08
2024-02-17T12:36:07.081Z,39.91
2024-02-17T12:39:09.974Z,38.99
2024-02-17T12:42:12.271Z,39.26
2024-02-17T12:45:24.560Z,41.92
2024-02-17T12:48:26.748Z,43.94
2024-02-17T12:51:30.774Z,46.33
2024-02-17T12:54:33.061Z,47.80
2024-02-17T12:57:34.867Z,47.82
2024-02-17T13:00:36.789Z,45.30
2024-02-17T13:03:38.464Z,41.35
2024-02-17T13:06:40.419Z,42.64
2024-02-17T13:09:42.343Z,43.91
2024-02-17T13:12:44.551Z,44.92
2024-02-17T13:15:46.492Z,45.59
2024-02-17T13:18:49.120Z,46.11
2024-02-17T13:21:51.495Z,46.21
2024-02-17T13:24:53.333Z,47.61
2024-02-17T13:27:55.748Z,47.67
2024-02-17T13:30:57.598Z,48.29
2024-02-17T13:33:59.759Z,48.72
2024-02-17T13:37:04.167Z,48.98
2024-02-17T13:40:07.617Z,48.91
2024-02-17T13:43:09.542Z,50.14
2024-02-17T13:46:12.140Z,49.96
2024-02-17T13:49:14.845Z,51.01
2024-02-17T13:52:17.177Z,52.37
2024-02-17T13:55:19.760Z,54.41
2024-02-17T13:58:21.670Z,57.86
2024-02-17T14:01:23.408Z,62.12
2024-02-17T14:04:25.746Z,64.63
2024-02-17T14:07:28.354Z,66.63
2024-02-17T14:10:30.076Z,71.15
2024-02-17T14:13:31.921Z,71.55
2024-02-17T14:16:34.156Z,70.83
2024-02-17T14:19:36.247Z,71.55
2024-02-17T14:22:37.956Z,73.19
2024-02-17T14:25:39.743Z,74.69
2024-02-17T14:28:42.399Z,74.70
2024-02-17T14:31:44.411Z,76.63
2024-02-17T14:34:46.560Z,78.85
2024-02-17T14:37:48.287Z,77.50
2024-02-17T14:40:50.415Z,78.97
2024-02-17T14:43:52.708Z,79.64
2024-02-17T14:46:54.916Z,79.72
2024-02-17T14:49:57.451Z,81.85
2024-02-17T14:52:59.558Z,82.37
2024-02-17T14:56:01.426Z,83.68
2024-02-17T14:59:03.513Z,82.69
2024-02-17T15:02:06.001Z,82.39
2024-02-17T15:05:08.776Z,84.02
2024-02-17T15:08:10.763Z,83.92
2024-02-17T15:11:13.070Z,84.20
2024-02-17T15:14:14.788Z,85.87
2024-02-17T15:17:16.953Z,87.64
2024-02-17T15:20:19.236Z,88.42
2024-02-17T15:23:21.066Z,87.84
2024-02-17T15:26:22.888Z,87.14
2024-02-17T15:29:24.643Z,87.55
2024-02-17T15:32:26.893Z,87.09
2024-02-17T15:35:29.179Z,88.69
2024-02-17T15:38:31.422Z,87.20
2024-02-17T15:41:33.675Z,87.81
2024-02-17T15:44:35.341Z,86.98
2024-02-17T15:47:37.036Z,86.82
2024-02-17T15:50:39.362Z,87.33
2024-02-17T15:53:41.633Z,88.06
2024-02-17T15:56:43.392Z,87.62
2024-02-17T15:59:45.963Z,87.15
2024-02-17T16:02:49.381Z,88.21
2024-02-17T16:05:51.555Z,87.00
2024-02-17T16:08:53.628Z,87.27
2024-02-17T16:11:55.680Z,87.11
2024-02-17T16:14:59.481Z,86.52
2024-02-17T16:18:02.549Z,87.15
2024-02-17T16:21:06.847Z,87.48
2024-02-17T16:24:09.307Z,87.86
2024-02-17T16:27:12.329Z,87.46
2024-02-17T16:30:14.463Z,87.11
2024-02-17T16:33:16.707Z,87.92
2024-02-17T16:36:20.140Z,87.73
2024-02-17T16:39:22.314Z,88.14
2024-02-17T16:42:24.052Z,86.96
2024-02-17T16:45:25.889Z,87.02
2024-02-17T16:48:28.324Z,87.34
2024-02-17T16:51:32.843Z,87.79
2024-02-17T16:54:36.945Z,88.01
2024-02-17T16:57:38.740Z,89.79
2024-02-17T17:00:41.027Z,89.37
2024-02-17T17:03:42.894Z,89.07
2024-02-17T17:06:44.985Z,90.28
2024-02-17T17:09:46.874Z,91.65
2024-02-17T17:12:48.681Z,91.63
2024-02-17T17:15:50.431Z,91.64
2024-02-17T17:18:53.166Z,91.79
2024-02-17T17:21:55.264Z,92.08
2024-02-17T17:24:57.101Z,92.18
2024-02-17T17:27:58.956Z,92.50
2024-02-17T17:31:01.315Z,93.02
2024-02-17T17:34:03.691Z,92.88
2024-02-17T17:37:05.543Z,92.97
2024-02-17T17:40:08.271Z,93.15
2024-02-17T17:43:11.258Z,92.53
2024-02-17T17:46:13.614Z,93.27
2024-02-17T17:49:15.755Z,92.64
2024-02-17T17:52:18.059Z,93.06
2024-02-17T17:55:21.040Z,92.74
2024-02-17T17:58:22.938Z,92.64
2024-02-17T18:01:25.025Z,93.11
2024-02-17T18:04:26.839Z,93.35
2024-02-17T18:07:28.705Z,92.99
2024-02-17T18:10:32.896Z,92.68
2024-02-17T18:13:36.184Z,91.96
2024-02-17T18:16:37.880Z,91.29
2024-02-17T18:19:39.663Z,91.25
2024-02-17T18:22:41.604Z,91.17
2024-02-17T18:25:43.274Z,91.56
2024-02-17T18:28:44.994Z,90.99
2024-02-17T18:31:47.229Z,91.30
2024-02-17T18:34:49.380Z,91.01
2024-02-17T18:37:51.644Z,90.74
2024-02-17T18:40:53.413Z,91.07
2024-02-17T18:43:55.611Z,90.98
2024-02-17T18:46:59.013Z,91.09
2024-02-17T18:50:01.509Z,90.65
2024-02-17T18:53:03.620Z,90.99
2024-02-17T18:56:05.932Z,90.86
2024-02-17T18:59:11.448Z,92.31
2024-02-17T19:02:14.568Z,91.79
2024-02-17T19:05:16.345Z,91.97
2024-02-17T19:08:18.518Z,90.93
2024-02-17T19:11:20.367Z,91.83
2024-02-17T19:14:22.672Z,91.29
2024-02-17T19:17:24.579Z,91.48
2024-02-17T19:20:26.286Z,91.50
2024-02-17T19:23:31.257Z,92.25
2024-02-17T19:26:35.609Z,92.16
2024-02-17T19:29:37.501Z,92.23
2024-02-17T19:32:39.740Z,92.68
2024-02-17T19:35:42.664Z,93.21
2024-02-17T19:38:44.972Z,92.71
2024-02-17T19:41:46.697Z,92.57
2024-02-17T19:44:48.939Z,93.17
2024-02-17T19:47:51.056Z,93.53
2024-02-17T19:50:53.011Z,93.44
2024-02-17T19:53:55.231Z,93.56
2024-02-17T19:56:57.074Z,94.24
2024-02-17T19:59:59.532Z,94.27
2024-02-17T20:03:01.743Z,94.89
2024-02-17T20:06:05.673Z,94.96
2024-02-17T20:09:07.356Z,95.54
2024-02-17T20:12:09.333Z,95.18
2024-02-17T20:15:11.875Z,94.91
2024-02-17T20:18:15.143Z,95.46
2024-02-17T20:21:17.197Z,95.00
2024-02-17T20:24:19.347Z,94.99
2024-02-17T20:27:22.163Z,95.10
2024-02-17T20:30:24.876Z,94.87
2024-02-17T20:33:26.731Z,95.07
2024-02-17T20:36:32.398Z,94.29
2024-02-17T20:39:35.065Z,93.90
2024-02-17T20:42:36.794Z,93.83
2024-02-17T20:45:38.524Z,93.52
2024-02-17T20:48:40.511Z,93.70
2024-02-17T20:51:42.698Z,93.59
2024-02-17T20:54:44.849Z,93.37
2024-02-17T20:57:48.675Z,93.89
2024-02-17T21:00:50.440Z,94.48
2024-02-17T21:03:52.472Z,95.03
2024-02-17T21:06:54.722Z,95.27
2024-02-17T21:09:56.816Z,94.15
2024-02-17T21:12:58.794Z,94.77
2024-02-17T21:16:00.684Z,95.34
2024-02-17T21:19:03.185Z,95.46
2024-02-17T21:22:05.042Z,95.67
2024-02-17T21:25:07.398Z,95.66
2024-02-17T21:28:09.512Z,95.75
2024-02-17T21:31:11.245Z,96.06
2024-02-17T21:34:13.688Z,96.37
2024-02-17T21:37:15.904Z,96.74
2024-02-17T21:40:17.664Z,96.54
2024-02-17T21:43:19.777Z,96.61
2024-02-17T21:46:21.657Z,97.00
2024-02-17T21:49:24.923Z,96.00
2024-02-17T21:52:27.210Z,95.72
2024-02-17T21:55:29.182Z,95.82
2024-02-17T21:58:30.899Z,95.36
2024-02-17T22:01:32.672Z,95.48
2024-02-17T22:04:35.051Z,95.58
2024-02-17T22:07:37.043Z,95.89
2024-02-17T22:10:39.313Z,95.50
2024-02-17T22:13:41.006Z,95.67
2024-02-17T22:16:43.559Z,95.57
2024-02-17T22:19:47.253Z,95.33
2024-02-17T22:22:50.762Z,95.30
2024-02-17T22:25:53.163Z,95.27
2024-02-17T22:28:54.835Z,95.85
2024-02-17T22:31:56.565Z,95.12
2024-02-17T22:34:58.537Z,94.62
2024-02-17T22:38:00.753Z,94.56
2024-02-17T22:41:03.231Z,93.95
2024-02-17T22:44:05.308Z,93.51
2024-02-17T22:47:07.061Z,93.66
2024-02-17T22:50:09.589Z,93.97
2024-02-17T22:53:12.188Z,94.02
2024-02-17T22:56:14.293Z,93.88
2024-02-17T22:59:15.903Z,93.33
2024-02-17T23:02:17.872Z,93.28
2024-02-17T23:05:20.646Z,92.97
2024-02-17T23:08:22.749Z,93.16
2024-02-17T23:11:24.958Z,93.25
2024-02-17T23:14:27.608Z,93.52
2024-02-17T23:17:30.118Z,92.98
2024-02-17T23:20:31.926Z,93.54
2024-02-17T23:23:33.850Z,93.23
2024-02-17T23:26:35.643Z,92.86
2024-02-17T23:29:37.580Z,92.80
2024-02-17T23:32:40.404Z,93.09
2024-02-17T23:35:42.614Z,93.12
2024-02-17T23:38:44.463Z,93.17
2024-02-17T23:41:46.248Z,93.46
2024-02-17T23:44:48.787Z,93.91
2024-02-17T23:47:50.781Z,94.05
2024-02-17T23:50:52.956Z,94.52
2024-02-17T23:53:54.822Z,95.17
2024-02-17T23:56:57.120Z,95.73
2024-02-17T23:59:58.834Z,96.06
